createdAt,value
2017-09-28T00:00:53.382Z,40.63
2017-09-28T00:03:20.666Z,41.47
2017-09-28T00:05:47.963Z,46.80
2017-09-28T00:08:15.232Z,40.93
2017-09-28T00:10:42.497Z,45.00
2017-09-28T00:13:09.799Z,42.67
2017-09-28T00:15:37.063Z,40.80
2017-09-28T00:18:04.379Z,41.93
2017-09-28T00:20:31.646Z,45.30
2017-09-28T00:22:58.926Z,41.30
2017-09-28T00:25:26.220Z,45.30
2017-09-28T00:27:53.484Z,38.73
2017-09-28T00:30:20.788Z,40.60
2017-09-28T00:32:48.095Z,43.17
2017-09-28T00:35:15.373Z,45.73
2017-09-28T00:37:42.643Z,38.40
2017-09-28T00:40:09.955Z,45.10
2017-09-28T00:42:37.236Z,41.50
2017-09-28T00:45:04.550Z,45.03
2017-09-28T00:47:31.822Z,39.53
2017-09-28T00:49:59.091Z,45.73
2017-09-28T00:52:26.391Z,40.80
2017-09-28T00:54:53.686Z,37.87
2017-09-28T00:57:20.986Z,41.03
2017-09-28T00:59:48.257Z,40.67
2017-09-28T01:02:15.553Z,44.80
2017-09-28T01:04:42.827Z,43.17
2017-09-28T01:07:10.126Z,37.10
2017-09-28T01:09:37.405Z,39.67
2017-09-28T01:12:04.691Z,42.13
2017-09-28T01:14:31.996Z,37.97
2017-09-28T01:16:59.259Z,38.40
2017-09-28T01:19:26.573Z,37.67
2017-09-28T01:21:53.842Z,40.80
2017-09-28T01:24:21.118Z,39.23
2017-09-28T01:26:48.479Z,37.90
2017-09-28T01:29:15.750Z,37.90
2017-09-28T01:31:43.052Z,32.80
2017-09-28T01:34:10.324Z,34.43
2017-09-28T01:36:37.611Z,37.03
2017-09-28T01:39:04.888Z,37.67
2017-09-28T01:41:32.196Z,39.30
2017-09-28T01:43:59.460Z,37.67
2017-09-28T01:46:26.734Z,38.33
2017-09-28T01:48:54.044Z,33.90
2017-09-28T01:51:21.311Z,34.53
2017-09-28T01:53:48.587Z,35.40
2017-09-28T01:56:15.886Z,34.97
2017-09-28T01:58:43.160Z,33.20
2017-09-28T02:01:10.443Z,42.63
2017-09-28T02:03:37.708Z,41.90
2017-09-28T02:06:05.020Z,29.80
2017-09-28T02:08:32.428Z,40.03
2017-09-28T02:10:59.698Z,32.30
2017-09-28T02:13:27.016Z,29.17
2017-09-28T02:15:54.281Z,32.00
2017-09-28T02:18:21.546Z,31.97
2017-09-28T02:20:48.852Z,35.70
2017-09-28T02:23:16.119Z,28.50
2017-09-28T02:25:43.396Z,30.67
2017-09-28T02:28:10.690Z,26.90
2017-09-28T02:30:37.994Z,27.00
2017-09-28T02:33:05.263Z,27.47
2017-09-28T02:35:32.544Z,29.20
2017-09-28T02:37:59.842Z,33.10
2017-09-28T02:40:27.103Z,28.60
2017-09-28T02:42:54.399Z,27.73
2017-09-28T02:45:21.680Z,33.30
2017-09-28T02:47:49.122Z,29.20
2017-09-28T02:50:16.394Z,30.00
2017-09-28T02:52:43.671Z,29.93
2017-09-28T02:55:10.971Z,29.70
2017-09-28T02:57:38.239Z,34.00
2017-09-28T03:00:05.539Z,33.73
2017-09-28T03:02:32.817Z,32.03
2017-09-28T03:05:00.106Z,29.17
2017-09-28T03:07:27.403Z,28.07
2017-09-28T03:09:54.679Z,41.00
2017-09-28T03:12:21.983Z,28.13
2017-09-28T03:14:49.251Z,30.00
2017-09-28T03:17:16.549Z,30.30
2017-09-28T03:19:43.822Z,30.20
2017-09-28T03:22:11.122Z,32.33
2017-09-28T03:24:38.410Z,26.63
2017-09-28T03:27:05.684Z,29.37
2017-09-28T03:29:32.990Z,29.03
2017-09-28T03:32:00.267Z,36.93
2017-09-28T03:34:27.577Z,28.50
2017-09-28T03:36:54.851Z,32.97
2017-09-28T03:39:22.119Z,28.73
2017-09-28T03:41:49.430Z,29.00
2017-09-28T03:44:16.691Z,25.97
2017-09-28T03:46:43.963Z,28.67
2017-09-28T03:49:11.260Z,24.70
2017-09-28T03:51:38.537Z,31.20
2017-09-28T03:54:05.839Z,27.20
2017-09-28T03:56:33.159Z,28.47
2017-09-28T03:59:00.467Z,26.97
2017-09-28T04:01:27.766Z,25.30
2017-09-28T04:03:55.036Z,29.20
2017-09-28T04:06:22.339Z,28.80
2017-09-28T04:08:49.651Z,26.43
2017-09-28T04:11:16.942Z,30.20
2017-09-28T04:13:44.210Z,28.93
2017-09-28T04:16:11.512Z,31.40
2017-09-28T04:18:39.710Z,26.80
2017-09-28T04:21:07.015Z,26.23
2017-09-28T04:23:34.283Z,22.77
2017-09-28T04:26:01.552Z,25.90
2017-09-28T04:28:28.851Z,27.27
2017-09-28T04:30:56.119Z,27.73
2017-09-28T04:33:23.418Z,25.47
2017-09-28T04:35:50.733Z,22.13
2017-09-28T04:38:18.004Z,24.10
2017-09-28T04:40:45.277Z,25.93
2017-09-28T04:43:12.587Z,28.83
2017-09-28T04:45:39.858Z,29.20
2017-09-28T04:48:07.129Z,25.90
2017-09-28T04:50:34.427Z,24.07
2017-09-28T04:53:01.703Z,28.70
2017-09-28T04:55:28.979Z,26.10
2017-09-28T04:57:56.283Z,29.43
2017-09-28T05:00:23.554Z,28.97
2017-09-28T05:02:50.859Z,24.17
2017-09-28T05:05:18.159Z,27.50
2017-09-28T05:07:45.435Z,25.50
2017-09-28T05:10:12.764Z,27.23
2017-09-28T05:12:40.039Z,31.47
2017-09-28T05:15:07.339Z,27.53
2017-09-28T05:17:34.638Z,28.67
2017-09-28T05:20:01.936Z,29.80
2017-09-28T05:22:29.206Z,32.13
2017-09-28T05:24:56.751Z,36.40
2017-09-28T05:27:24.031Z,31.37
2017-09-28T05:33:21.558Z,29.67
2017-09-28T05:35:48.831Z,32.30
2017-09-28T05:38:16.116Z,29.07
2017-09-28T05:40:43.414Z,33.30
2017-09-28T05:43:10.687Z,33.77
2017-09-28T05:45:37.976Z,33.93
2017-09-28T05:48:05.251Z,29.10
2017-09-28T05:50:32.558Z,34.33
2017-09-28T05:52:59.852Z,30.37
2017-09-28T05:55:27.125Z,36.97
2017-09-28T05:57:54.444Z,31.03
2017-09-28T06:00:21.715Z,37.00
2017-09-28T06:02:48.999Z,35.53
2017-09-28T06:05:16.300Z,31.73
2017-09-28T06:07:43.600Z,36.97
2017-09-28T06:10:10.871Z,36.07
2017-09-28T06:12:38.171Z,27.80
2017-09-28T06:15:05.443Z,34.30
2017-09-28T06:17:32.745Z,36.27
2017-09-28T06:20:00.023Z,34.57
2017-09-28T06:22:27.299Z,36.53
2017-09-28T06:24:54.606Z,31.47
2017-09-28T06:27:21.874Z,35.00
2017-09-28T06:29:49.146Z,31.90
2017-09-28T06:32:16.462Z,36.73
2017-09-28T06:34:43.739Z,32.23
2017-09-28T06:37:11.035Z,32.63
2017-09-28T06:39:38.325Z,40.80
2017-09-28T06:42:05.628Z,37.20
2017-09-28T06:44:32.927Z,38.00
2017-09-28T06:47:00.199Z,39.70
2017-09-28T06:49:27.508Z,36.20
2017-09-28T06:51:54.780Z,36.97
2017-09-28T06:54:22.050Z,36.47
2017-09-28T06:56:49.350Z,35.20
2017-09-28T06:59:16.620Z,40.47
2017-09-28T07:01:43.922Z,35.77
2017-09-28T07:04:11.335Z,34.20
2017-09-28T07:06:38.624Z,39.53
2017-09-28T07:09:05.895Z,40.97
2017-09-28T07:11:33.162Z,39.20
2017-09-28T07:14:00.468Z,38.07
2017-09-28T07:16:27.733Z,34.13
2017-09-28T07:18:55.027Z,37.37
2017-09-28T07:21:22.300Z,33.00
2017-09-28T07:23:49.599Z,41.20
2017-09-28T07:26:16.885Z,35.50
2017-09-28T07:28:44.180Z,38.30
2017-09-28T07:31:11.451Z,39.23
2017-09-28T07:33:38.743Z,34.23
2017-09-28T07:36:06.016Z,38.07
2017-09-28T07:38:33.310Z,42.07
2017-09-28T07:41:00.579Z,42.53
2017-09-28T07:43:27.871Z,41.70
2017-09-28T07:45:55.143Z,45.70
2017-09-28T07:48:22.447Z,46.73
2017-09-28T07:50:49.743Z,66.40
2017-09-28T07:53:17.049Z,70.70
2017-09-28T07:55:44.314Z,75.97
2017-09-28T07:58:11.613Z,71.83
2017-09-28T08:00:38.915Z,69.80
2017-09-28T08:03:06.182Z,77.93
2017-09-28T08:05:33.496Z,71.57
2017-09-28T08:08:00.762Z,68.30
2017-09-28T08:10:28.038Z,65.03
2017-09-28T08:12:55.343Z,66.77
2017-09-28T08:15:22.610Z,56.83
2017-09-28T08:17:49.910Z,52.83
2017-09-28T08:20:17.183Z,53.20
2017-09-28T08:22:44.481Z,50.43
2017-09-28T08:25:11.763Z,61.63
2017-09-28T08:27:39.054Z,54.90
2017-09-28T08:30:06.331Z,63.43
2017-09-28T08:32:33.631Z,72.30
2017-09-28T08:35:00.943Z,63.33
2017-09-28T08:37:28.219Z,64.17
2017-09-28T08:39:55.495Z,69.50
2017-09-28T08:42:22.791Z,80.93
2017-09-28T08:44:50.062Z,70.03
2017-09-28T08:47:17.379Z,73.67
2017-09-28T08:49:44.650Z,75.23
2017-09-28T08:52:11.926Z,66.87
2017-09-28T08:54:39.243Z,74.43
2017-09-28T08:57:06.515Z,69.97
2017-09-28T08:59:33.791Z,71.27
2017-09-28T09:02:01.095Z,64.33
2017-09-28T09:04:28.398Z,71.40
2017-09-28T09:06:55.683Z,84.00
2017-09-28T09:09:22.970Z,72.33
2017-09-28T09:11:50.272Z,65.90
2017-09-28T09:14:17.543Z,74.93
2017-09-28T09:16:44.845Z,68.23
2017-09-28T09:19:12.118Z,68.80
2017-09-28T09:21:39.414Z,73.20
2017-09-28T09:24:06.706Z,67.80
2017-09-28T09:26:33.979Z,69.47
2017-09-28T09:29:01.279Z,60.60
2017-09-28T09:31:28.552Z,57.67
2017-09-28T09:33:55.859Z,56.53
2017-09-28T09:36:23.136Z,67.93
2017-09-28T09:38:50.400Z,63.10
2017-09-28T09:41:17.699Z,59.27
2017-09-28T09:43:44.976Z,63.27
2017-09-28T09:46:12.274Z,59.27
2017-09-28T09:48:39.547Z,57.53
2017-09-28T09:51:06.846Z,53.90
2017-09-28T09:53:34.143Z,58.20
2017-09-28T09:56:01.411Z,53.23
2017-09-28T09:58:28.709Z,50.07
2017-09-28T10:00:55.982Z,49.73
2017-09-28T10:03:23.271Z,52.93
2017-09-28T10:05:50.551Z,47.40
2017-09-28T10:08:25.307Z,47.83
2017-09-28T10:10:57.318Z,53.77
2017-09-28T10:13:26.571Z,57.10
2017-09-28T10:15:58.483Z,52.07
2017-09-28T10:18:25.941Z,53.53
2017-09-28T10:20:53.240Z,53.23
2017-09-28T10:23:20.510Z,50.27
2017-09-28T10:25:47.796Z,47.00
2017-09-28T10:28:15.098Z,45.53
2017-09-28T10:30:42.375Z,43.20
2017-09-28T10:33:09.689Z,45.50
2017-09-28T10:35:36.958Z,42.23
2017-09-28T10:38:04.227Z,42.13
2017-09-28T10:40:31.530Z,40.70
2017-09-28T10:42:58.806Z,42.67
2017-09-28T10:45:26.084Z,37.60
2017-09-28T10:47:53.378Z,47.00
2017-09-28T10:50:20.658Z,41.47
2017-09-28T10:52:47.954Z,41.60
2017-09-28T10:55:15.272Z,39.60
2017-09-28T10:57:42.545Z,39.60
2017-09-28T11:00:09.815Z,42.67
2017-09-28T11:02:37.118Z,45.07
2017-09-28T11:05:04.392Z,39.30
2017-09-28T11:07:31.695Z,38.73
2017-09-28T11:09:59.003Z,33.70
2017-09-28T11:12:26.305Z,38.13
2017-09-28T11:14:53.620Z,37.00
2017-09-28T11:17:20.916Z,36.73
2017-09-28T11:19:48.164Z,35.43
2017-09-28T11:22:15.469Z,31.40
2017-09-28T11:24:42.758Z,30.27
2017-09-28T11:27:10.056Z,29.10
2017-09-28T11:29:37.322Z,27.87
2017-09-28T11:32:04.748Z,26.97
2017-09-28T11:34:32.660Z,28.40
2017-09-28T11:37:00.143Z,31.37
2017-09-28T11:39:27.434Z,32.03
2017-09-28T11:41:55.110Z,31.30
2017-09-28T11:44:23.334Z,37.63
2017-09-28T11:46:50.828Z,29.57
2017-09-28T11:49:18.107Z,34.70
2017-09-28T11:51:45.407Z,31.10
2017-09-28T11:54:12.677Z,33.73
2017-09-28T11:56:40.069Z,37.73
2017-09-28T11:59:07.396Z,35.80
2017-09-28T12:01:34.687Z,32.77
2017-09-28T12:04:01.963Z,34.83
2017-09-28T12:06:29.275Z,36.13
2017-09-28T12:08:56.543Z,38.80
2017-09-28T12:11:23.825Z,35.53
2017-09-28T12:13:51.146Z,39.63
2017-09-28T12:16:18.411Z,39.00
2017-09-28T12:18:45.692Z,37.10
2017-09-28T12:21:13.040Z,42.93
2017-09-28T12:23:40.274Z,39.20
2017-09-28T12:26:07.571Z,34.70
2017-09-28T12:28:34.868Z,33.33
2017-09-28T12:31:02.174Z,31.63
2017-09-28T12:33:29.476Z,30.57
2017-09-28T12:35:56.791Z,31.23
2017-09-28T12:38:24.048Z,34.27
2017-09-28T12:40:51.339Z,32.70
2017-09-28T12:43:18.615Z,35.87
2017-09-28T12:45:45.916Z,34.20
2017-09-28T12:48:13.190Z,32.03
2017-09-28T12:50:40.461Z,29.37
2017-09-28T12:53:07.765Z,32.57
2017-09-28T12:55:35.036Z,32.77
2017-09-28T12:58:02.367Z,27.53
2017-09-28T13:00:29.631Z,28.33
2017-09-28T13:02:56.903Z,29.50
2017-09-28T13:05:24.214Z,35.83
2017-09-28T13:07:51.474Z,30.67
2017-09-28T13:10:18.772Z,39.23
2017-09-28T13:12:46.086Z,33.73
2017-09-28T13:15:13.388Z,30.40
2017-09-28T13:17:40.659Z,26.03
2017-09-28T13:20:07.975Z,31.27
2017-09-28T13:22:35.312Z,27.83
2017-09-28T13:25:02.579Z,28.17
2017-09-28T13:27:29.874Z,27.17
2017-09-28T13:29:57.175Z,23.63
2017-09-28T13:32:24.455Z,26.13
2017-09-28T13:34:51.771Z,24.23
2017-09-28T13:37:19.050Z,26.97
2017-09-28T13:39:46.337Z,23.70
2017-09-28T13:42:13.649Z,21.40
2017-09-28T13:44:40.921Z,26.30
2017-09-28T13:47:08.245Z,24.67
2017-09-28T13:49:35.522Z,26.07
2017-09-28T13:52:02.860Z,23.20
2017-09-28T13:54:30.181Z,27.87
2017-09-28T13:56:57.467Z,25.77
2017-09-28T13:59:24.750Z,27.43
2017-09-28T14:01:52.095Z,28.40
2017-09-28T14:04:19.397Z,27.40
2017-09-28T14:06:46.795Z,30.37
2017-09-28T14:09:13.962Z,24.27
2017-09-28T14:11:41.263Z,25.83
2017-09-28T14:14:08.572Z,25.93
2017-09-28T14:16:35.855Z,27.73
2017-09-28T14:19:03.136Z,22.07
2017-09-28T14:21:30.439Z,24.60
2017-09-28T14:23:57.748Z,27.43
2017-09-28T14:26:25.035Z,27.93
2017-09-28T14:28:52.303Z,23.50
2017-09-28T14:31:19.602Z,24.40
2017-09-28T14:33:46.875Z,27.13
2017-09-28T14:36:14.220Z,25.37
2017-09-28T14:38:41.505Z,23.37
2017-09-28T14:41:08.787Z,27.53
2017-09-28T14:43:36.143Z,28.07
2017-09-28T14:46:03.419Z,29.80
2017-09-28T14:48:30.712Z,26.67
2017-09-28T14:50:58.015Z,26.60
2017-09-28T14:53:25.312Z,26.77
2017-09-28T14:55:52.632Z,31.50
2017-09-28T14:58:19.918Z,24.47
2017-09-28T15:00:47.280Z,26.17
2017-09-28T15:03:14.503Z,27.90
2017-09-28T15:05:41.812Z,28.93
2017-09-28T15:08:09.100Z,28.67
2017-09-28T15:10:36.409Z,25.73
2017-09-28T15:13:03.730Z,29.30
2017-09-28T15:15:31.007Z,29.80
2017-09-28T15:17:58.284Z,27.17
2017-09-28T15:20:25.601Z,28.33
2017-09-28T15:22:52.870Z,33.73
2017-09-28T15:25:20.150Z,26.97
2017-09-28T15:27:47.527Z,28.77
2017-09-28T15:30:14.768Z,26.13
2017-09-28T15:32:42.039Z,26.40
2017-09-28T15:35:09.339Z,25.57
2017-09-28T15:37:36.650Z,25.87
2017-09-28T15:40:03.931Z,28.90
2017-09-28T15:42:31.227Z,24.97
2017-09-28T15:44:58.523Z,23.90
2017-09-28T15:47:25.840Z,31.10
2017-09-28T15:49:53.127Z,27.53
2017-09-28T15:52:20.398Z,28.63
2017-09-28T15:54:47.826Z,30.43
2017-09-28T15:57:14.979Z,33.60
2017-09-28T15:59:42.287Z,30.43
2017-09-28T16:02:09.566Z,30.23
2017-09-28T16:04:36.873Z,38.93
2017-09-28T16:07:04.170Z,37.83
2017-09-28T16:09:31.453Z,30.90
2017-09-28T16:11:58.767Z,28.67
2017-09-28T16:14:26.049Z,30.63
2017-09-28T16:16:53.356Z,31.73
2017-09-28T16:19:20.650Z,30.93
2017-09-28T16:21:48.068Z,28.70
2017-09-28T16:24:15.235Z,30.77
2017-09-28T16:26:42.537Z,29.07
2017-09-28T16:29:09.844Z,25.63
2017-09-28T16:31:37.136Z,30.07
2017-09-28T16:34:04.478Z,28.23
2017-09-28T16:36:31.752Z,27.10
2017-09-28T16:38:59.052Z,23.83
2017-09-28T16:41:26.363Z,27.93
2017-09-28T16:43:53.633Z,27.07
2017-09-28T16:46:20.983Z,30.43
2017-09-28T16:48:48.313Z,25.20
2017-09-28T16:51:15.562Z,23.90
2017-09-28T16:53:42.895Z,28.03
2017-09-28T16:56:10.168Z,23.23
2017-09-28T16:58:37.449Z,23.60
2017-09-28T17:01:04.745Z,27.33
2017-09-28T17:03:32.015Z,25.53
2017-09-28T17:05:59.315Z,28.43
2017-09-28T17:08:26.600Z,30.63
2017-09-28T17:10:53.919Z,25.63
2017-09-28T17:13:21.194Z,28.63
2017-09-28T17:15:48.561Z,26.20
2017-09-28T17:18:15.792Z,24.33
2017-09-28T17:20:43.063Z,24.90
2017-09-28T17:23:10.342Z,32.60
2017-09-28T17:25:37.656Z,22.70
2017-09-28T17:28:04.918Z,22.00
2017-09-28T17:30:32.965Z,25.30
2017-09-28T17:33:00.445Z,23.53
2017-09-28T17:35:27.715Z,24.80
2017-09-28T17:37:55.027Z,24.70
2017-09-28T17:40:22.308Z,23.93
2017-09-28T17:42:49.604Z,23.00
2017-09-28T17:45:16.920Z,24.30
2017-09-28T17:47:44.199Z,25.10
2017-09-28T17:50:11.517Z,22.30
2017-09-28T17:52:38.791Z,23.03
2017-09-28T17:55:06.079Z,22.90
2017-09-28T17:57:33.379Z,23.87
2017-09-28T18:00:00.697Z,22.83
2017-09-28T18:02:27.988Z,17.67
2017-09-28T18:04:55.274Z,21.80
2017-09-28T18:07:22.579Z,20.87
2017-09-28T18:09:49.867Z,23.57
2017-09-28T18:12:17.187Z,22.97
2017-09-28T18:14:44.507Z,22.10
2017-09-28T18:17:11.783Z,26.83
2017-09-28T18:19:39.061Z,30.17
2017-09-28T18:22:06.357Z,26.47
2017-09-28T18:24:33.826Z,25.80
2017-09-28T18:27:01.125Z,22.07
2017-09-28T18:29:28.419Z,26.67
2017-09-28T18:31:55.691Z,21.27
2017-09-28T18:34:22.998Z,23.40
2017-09-28T18:36:50.274Z,20.10
2017-09-28T18:39:17.547Z,24.73
2017-09-28T18:41:44.851Z,21.20
2017-09-28T18:44:12.119Z,20.40
2017-09-28T18:46:39.426Z,20.70
2017-09-28T18:49:06.694Z,22.03
2017-09-28T18:51:33.980Z,26.00
2017-09-28T18:54:01.307Z,22.40
2017-09-28T18:56:28.588Z,23.20
2017-09-28T18:58:55.859Z,18.67
2017-09-28T19:01:23.159Z,23.13
2017-09-28T19:03:50.436Z,19.33
2017-09-28T19:06:17.737Z,29.97
2017-09-28T19:08:45.020Z,21.70
2017-09-28T19:11:12.336Z,19.27
2017-09-28T19:13:39.706Z,19.10
2017-09-28T19:16:07.070Z,18.07
2017-09-28T19:18:34.460Z,19.10
2017-09-28T19:21:01.754Z,22.53
2017-09-28T19:23:29.067Z,18.77
2017-09-28T19:25:56.343Z,20.00
2017-09-28T19:28:23.635Z,18.57
2017-09-28T19:30:50.938Z,18.10
2017-09-28T19:33:18.252Z,18.40
2017-09-28T19:35:45.562Z,19.77
2017-09-28T19:38:12.832Z,23.20
2017-09-28T19:40:40.129Z,19.70
2017-09-28T19:43:07.427Z,17.30
2017-09-28T19:45:34.727Z,39.70
2017-09-28T19:48:01.999Z,22.60
2017-09-28T19:50:29.306Z,18.97
2017-09-28T19:52:56.578Z,17.53
2017-09-28T19:55:23.852Z,21.50
2017-09-28T19:57:51.170Z,19.23
2017-09-28T20:00:18.440Z,18.03
2017-09-28T20:02:45.738Z,21.00
2017-09-28T20:05:17.607Z,20.87
2017-09-28T20:07:44.908Z,16.30
2017-09-28T20:10:12.180Z,18.50
2017-09-28T20:12:39.477Z,20.90
2017-09-28T20:15:06.823Z,18.20
2017-09-28T20:17:34.096Z,18.30
2017-09-28T20:20:01.364Z,16.43
2017-09-28T20:22:28.664Z,18.77
2017-09-28T20:24:55.932Z,17.60
2017-09-28T20:27:23.240Z,15.97
2017-09-28T20:29:50.512Z,17.30
2017-09-28T20:32:17.811Z,21.10
2017-09-28T20:34:45.119Z,20.97
2017-09-28T20:37:12.395Z,19.10
2017-09-28T20:39:39.666Z,17.90
2017-09-28T20:42:06.982Z,17.63
2017-09-28T20:44:34.251Z,18.30
2017-09-28T20:47:01.536Z,16.53
2017-09-28T20:49:28.867Z,20.87
2017-09-28T20:51:56.144Z,20.27
2017-09-28T20:54:23.424Z,19.93
2017-09-28T20:56:50.741Z,20.40
2017-09-28T20:59:18.011Z,22.53
2017-09-28T21:01:45.288Z,18.40
2017-09-28T21:04:12.609Z,20.57
2017-09-28T21:06:39.879Z,21.20
2017-09-28T21:09:07.172Z,17.07
2017-09-28T21:11:34.463Z,23.30
2017-09-28T21:14:01.748Z,20.80
2017-09-28T21:16:29.039Z,17.97
2017-09-28T21:18:56.315Z,22.13
2017-09-28T21:21:23.618Z,22.97
2017-09-28T21:23:50.924Z,26.90
2017-09-28T21:26:18.201Z,23.80
2017-09-28T21:28:45.499Z,24.60
2017-09-28T21:31:12.814Z,25.77
2017-09-28T21:33:40.108Z,28.93
2017-09-28T21:36:07.379Z,19.33
2017-09-28T21:38:34.675Z,20.43
2017-09-28T21:41:01.972Z,22.60
2017-09-28T21:43:29.247Z,25.37
2017-09-28T21:45:56.571Z,21.67
2017-09-28T21:48:23.862Z,23.43
2017-09-28T21:50:51.132Z,24.20
2017-09-28T21:53:18.430Z,22.80
2017-09-28T21:55:45.743Z,20.03
2017-09-28T21:58:13.014Z,20.40
2017-09-28T22:00:40.309Z,21.73
2017-09-28T22:03:07.608Z,21.10
2017-09-28T22:05:34.899Z,21.23
2017-09-28T22:08:02.223Z,24.50
2017-09-28T22:10:29.496Z,20.60
2017-09-28T22:12:56.763Z,19.80
2017-09-28T22:15:24.067Z,21.43
2017-09-28T22:17:51.343Z,20.87
2017-09-28T22:20:18.615Z,20.43
2017-09-28T22:22:45.922Z,22.13
2017-09-28T22:25:13.214Z,19.40
2017-09-28T22:27:40.487Z,19.67
2017-09-28T22:30:07.783Z,21.23
2017-09-28T22:32:35.054Z,20.43
2017-09-28T22:35:02.352Z,18.77
2017-09-28T22:37:29.618Z,22.53
2017-09-28T22:39:56.915Z,27.37
2017-09-28T22:42:24.223Z,33.53
2017-09-28T22:44:51.491Z,24.33
2017-09-28T22:47:18.800Z,25.43
2017-09-28T22:49:46.071Z,28.03
2017-09-28T22:52:13.370Z,24.60
2017-09-28T22:54:40.635Z,24.27
2017-09-28T22:57:07.944Z,27.13
2017-09-28T22:59:35.216Z,23.30
2017-09-28T23:02:02.482Z,21.87
2017-09-28T23:04:29.783Z,23.60
2017-09-28T23:06:57.063Z,21.30
2017-09-28T23:09:24.367Z,24.73
2017-09-28T23:11:51.639Z,22.13
2017-09-28T23:14:18.934Z,19.13
2017-09-28T23:16:46.209Z,21.80
2017-09-28T23:19:13.523Z,20.70
2017-09-28T23:21:40.795Z,21.60
2017-09-28T23:24:08.075Z,20.93
2017-09-28T23:26:35.381Z,18.50
2017-09-28T23:29:02.655Z,18.90
2017-09-28T23:31:29.975Z,22.20
2017-09-28T23:33:57.252Z,20.63
2017-09-28T23:36:24.515Z,22.33
2017-09-28T23:38:51.819Z,19.50
2017-09-28T23:41:19.099Z,25.37
2017-09-28T23:43:46.383Z,17.53
2017-09-28T23:46:13.680Z,19.20
2017-09-28T23:48:40.949Z,20.83
2017-09-28T23:51:08.251Z,20.03
2017-09-28T23:53:35.524Z,21.87
2017-09-28T23:56:02.833Z,21.73
2017-09-28T23:58:30.099Z,27.33
